Flight Track Log - Related Links

Times and Time Zones

All times are in EDT time to prevent confusion due to time zone crossing. See the AWE365 flight status page for this flight to view local times or setup timezone preferences in your user account.

Time Position Orientation Groundspeed Altitude Reporting Facility
EDT Latitude Longitude Course Direction KTS MPH feet Rate Location/Type
Sun 07:00:00 PM 21.0992 -105.4581 336° Northwest  Level FlightAware Approximate
Sun 07:01:00 PM 21.2040 -105.5093 336° Northwest  Level FlightAware Approximate
Sun 07:02:00 PM 21.3087 -105.5605 335° Northwest  Level FlightAware Approximate
Sun 07:03:00 PM 21.4134 -105.6118 335° Northwest  Level FlightAware Approximate
Sun 07:04:00 PM 21.5181 -105.6632 335° Northwest  Level FlightAware Approximate
Sun 07:05:00 PM 21.6228 -105.7147 335° Northwest  Level FlightAware Approximate
Sun 07:06:00 PM 21.7274 -105.7662 335° Northwest  Level FlightAware Approximate
Sun 07:07:00 PM 21.8321 -105.8178 335° Northwest  Level FlightAware Approximate
Sun 07:08:00 PM 21.9367 -105.8695 335° Northwest  Level FlightAware Approximate
Sun 07:09:00 PM 22.0413 -105.9212 335° Northwest  Level FlightAware Approximate
Sun 07:10:00 PM 22.1460 -105.9731 335° Northwest  Level FlightAware Approximate
Sun 07:11:00 PM 22.2384 -106.0176 336° Northwest  Level FlightAware Approximate
Sun 07:12:00 PM 22.3437 -106.0679 336° Northwest  Level FlightAware Approximate
Sun 07:13:00 PM 22.4490 -106.1182 336° Northwest  Level FlightAware Approximate
Sun 07:14:00 PM 22.5542 -106.1688 335° Northwest  Level FlightAware Approximate
Sun 07:15:00 PM 22.6587 -106.2210 335° Northwest  Level FlightAware Approximate
Sun 07:16:00 PM 22.7632 -106.2733 335° Northwest  Level FlightAware Approximate
Sun 07:17:00 PM 22.8677 -106.3258 335° Northwest  Level FlightAware Approximate
Sun 07:18:00 PM 22.9721 -106.3782 335° Northwest  Level FlightAware Approximate
Sun 07:19:00 PM 23.0766 -106.4308 335° Northwest  Level FlightAware Approximate
Sun 07:20:00 PM 23.1810 -106.4835 335° Northwest  Level FlightAware Approximate
Sun 07:21:00 PM 23.2854 -106.5362 335° Northwest  Level FlightAware Approximate
Sun 07:22:00 PM 23.3898 -106.5890 335° Northwest  Level FlightAware Approximate
Sun 07:23:00 PM 23.4942 -106.6419 335° Northwest  Level FlightAware Approximate
Sun 07:24:00 PM 23.5985 -106.6949 335° Northwest  Level FlightAware Approximate
Sun 07:25:00 PM 23.7028 -106.7480 335° Northwest  Level FlightAware Approximate
Sun 07:26:00 PM 23.8071 -106.8011 335° Northwest  Level FlightAware Approximate
Sun 07:27:00 PM 23.9114 -106.8543 335° Northwest  Level FlightAware Approximate
Sun 07:28:00 PM 24.0157 -106.9077 335° Northwest  Level FlightAware Approximate
Sun 07:29:00 PM 24.1200 -106.9611 335° Northwest  Level FlightAware Approximate
Sun 07:30:00 PM 24.2242 -107.0146 335° Northwest  Level FlightAware Approximate
Sun 07:31:00 PM 24.3284 -107.0682 335° Northwest  Level FlightAware Approximate
Sun 07:32:00 PM 24.4326 -107.1219 335° Northwest  Level FlightAware Approximate
Sun 07:33:00 PM 24.5368 -107.1756 335° Northwest  Level FlightAware Approximate
Sun 07:34:00 PM 24.6410 -107.2295 335° Northwest  Level FlightAware Approximate
Sun 07:35:00 PM 24.7451 -107.2834 335° Northwest  Level FlightAware Approximate
Sun 07:36:00 PM 24.8493 -107.3374 335° Northwest  Level FlightAware Approximate
Sun 07:37:00 PM 24.9534 -107.3916 335° Northwest  Level FlightAware Approximate
Sun 07:38:00 PM 25.0575 -107.4458 335° Northwest  Level FlightAware Approximate
Sun 07:39:00 PM 25.1615 -107.5001 335° Northwest  Level FlightAware Approximate
Sun 07:40:00 PM 25.2656 -107.5545 335° Northwest  Level FlightAware Approximate
Sun 07:41:00 PM 25.3696 -107.6090 335° Northwest  Level FlightAware Approximate
Sun 07:42:00 PM 25.4736 -107.6636 335° Northwest  Level FlightAware Approximate
Sun 07:43:00 PM 25.5776 -107.7183 335° Northwest  Level FlightAware Approximate
Sun 07:44:00 PM 25.6816 -107.7730 335° Northwest  Level FlightAware Approximate
Sun 07:45:00 PM 25.7855 -107.8279 335° Northwest  Level FlightAware Approximate
Sun 07:46:00 PM 25.8895 -107.8829 335° Northwest  Level FlightAware Approximate
Sun 07:47:00 PM 25.9933 -107.9380 335° Northwest  Level FlightAware Approximate
Sun 07:48:00 PM 26.0972 -107.9931 335° Northwest  Level FlightAware Approximate
Sun 07:49:00 PM 26.2011 -108.0484 334° Northwest  Level FlightAware Approximate
Sun 07:50:00 PM 26.3043 -108.1052 332° Northwest  Level FlightAware Approximate
Sun 07:51:00 PM 26.4063 -108.1647 332° Northwest  Level FlightAware Approximate
Sun 07:52:00 PM 26.5090 -108.2226 334° Northwest  Level FlightAware Approximate
Sun 07:53:00 PM 26.6129 -108.2781 334° Northwest  Level FlightAware Approximate
Sun 07:54:00 PM 26.7167 -108.3337 334° Northwest  Level FlightAware Approximate
Sun 07:55:00 PM 26.8205 -108.3895 334° Northwest  Level FlightAware Approximate
Sun 07:56:00 PM 26.9242 -108.4453 334° Northwest  Level FlightAware Approximate
Sun 07:57:00 PM 27.0280 -108.5012 334° Northwest  Level FlightAware Approximate
Sun 07:58:00 PM 27.1317 -108.5572 334° Northwest  Level FlightAware Approximate
Sun 07:59:00 PM 27.2354 -108.6133 334° Northwest  Level FlightAware Approximate
Sun 08:00:00 PM 27.3391 -108.6696 334° Northwest  Level FlightAware Approximate
Sun 08:01:00 PM 27.4428 -108.7259 334° Northwest  Level FlightAware Approximate
Sun 08:02:00 PM 27.5464 -108.7823 334° Northwest  Level FlightAware Approximate
Sun 08:03:00 PM 27.6500 -108.8389 334° Northwest  Level FlightAware Approximate
Sun 08:04:00 PM 27.7536 -108.8956 334° Northwest  Level FlightAware Approximate
Sun 08:05:00 PM 27.8572 -108.9523 334° Northwest  Level FlightAware Approximate
Sun 08:06:00 PM 27.9606 -109.0096 334° Northwest  Level FlightAware Approximate
Sun 08:07:00 PM 28.0639 -109.0670 334° Northwest  Level FlightAware Approximate
Sun 08:08:00 PM 28.1672 -109.1246 334° Northwest  Level FlightAware Approximate
Sun 08:09:00 PM 28.2705 -109.1823 334° Northwest  Level FlightAware Approximate
Sun 08:10:00 PM 28.3737 -109.2401 334° Northwest  Level FlightAware Approximate
Sun 08:11:00 PM 28.4770 -109.2980 334° Northwest  Level FlightAware Approximate
Sun 08:12:00 PM 28.5802 -109.3560 334° Northwest  Level FlightAware Approximate
Sun 08:13:00 PM 28.6833 -109.4141 334° Northwest  Level FlightAware Approximate
Sun 08:14:00 PM 28.7865 -109.4724 334° Northwest  Level FlightAware Approximate
Sun 08:15:00 PM 28.8896 -109.5307 334° Northwest  Level FlightAware Approximate
Sun 08:16:00 PM 28.9927 -109.5892 334° Northwest  Level FlightAware Approximate
Sun 08:17:00 PM 29.0958 -109.6478 334° Northwest  Level FlightAware Approximate
Sun 08:18:00 PM 29.1988 -109.7065 334° Northwest  Level FlightAware Approximate
Sun 08:19:00 PM 29.3018 -109.7653 334° Northwest  Level FlightAware Approximate
Sun 08:20:00 PM 29.4056 -109.8226 335° Northwest  Level FlightAware Approximate
Sun 08:21:00 PM 29.5096 -109.8792 335° Northwest  Level FlightAware Approximate
Sun 08:22:00 PM 29.6135 -109.9360 335° Northwest  Level FlightAware Approximate
Sun 08:23:00 PM 29.7173 -109.9934 333° Northwest  Level FlightAware Approximate
Sun 08:24:00 PM 29.8200 -110.0531 333° Northwest  Level FlightAware Approximate
Sun 08:25:00 PM 29.9227 -110.1130 333° Northwest  Level FlightAware Approximate
Sun 08:26:00 PM 30.0254 -110.1730 333° Northwest  Level FlightAware Approximate
Sun 08:27:00 PM 30.1282 -110.2328 334° Northwest  Level FlightAware Approximate
Sun 08:27:20 PM 30.7486 -110.6025 334° Northwest 461 531 32,900  Level Albuquerque Center
Sun 08:28:00 PM 30.2313 -110.2920 334° Northwest  Level FlightAware Approximate
Sun 08:28:21 PM 30.8725 -110.6769 333° Northwest 454 522 32,300  Level Albuquerque Center
Sun 08:29:00 PM 30.3344 -110.3513 334° Northwest  Level FlightAware Approximate
Sun 08:29:23 PM 30.9878 -110.7436 334° Northwest 459 528 31,900  Level Albuquerque Center
Sun 08:30:00 PM 30.4375 -110.4107 334° Northwest  Level FlightAware Approximate
Sun 08:30:24 PM 31.1022 -110.8111 333° Northwest 462 532 32,000  Level Albuquerque Center
Sun 08:31:00 PM 30.5405 -110.4703 334° Northwest  Level FlightAware Approximate
Sun 08:31:26 PM 31.2158 -110.8800 333° Northwest 461 531 32,000  Level Albuquerque Center
Sun 08:32:00 PM 30.6435 -110.5300 334° Northwest  Level FlightAware Approximate
Sun 08:32:27 PM 31.3331 -110.9322 339° North 455 524 32,000  Level Albuquerque Center
Sun 08:33:29 PM 31.4847 -110.9425 357° North 448 516 32,000  Level Albuquerque Center
Sun 08:34:30 PM 31.6114 -110.9358 North 444 511 32,000 -49 Level Albuquerque Center
Sun 08:35:32 PM 31.7394 -110.9331 North 444 511 31,900 -683 Descending Albuquerque Center
Sun 08:36:33 PM 31.8592 -110.9269 North 447 514 30,600 -2,000 Descending Albuquerque Center
Sun 08:37:35 PM 31.9817 -110.9211 North 445 512 27,800 -2,293 Descending Albuquerque Center
Sun 08:38:36 PM 32.1003 -110.9172 North 432 497 25,900 -1,610 Descending Albuquerque Center
Sun 08:39:38 PM 32.2089 -110.9444 348° North 404 465 24,500 -1,366 Descending Albuquerque Center
Sun 08:40:39 PM 32.3142 -110.9728 347° North 392 451 23,100 -1,366 Descending Albuquerque Center
Sun 08:41:41 PM 32.4172 -111.0008 347° North 384 442 21,700 -1,512 Descending Albuquerque Center
Sun 08:42:42 PM 32.5389 -111.0339 347° North 375 432 20,000 -1,475 Descending Albuquerque Center
Sun 08:43:43 PM 32.6386 -111.0619 347° North 370 426 18,700 -1,268 Descending Albuquerque Center
Sun 08:44:45 PM 32.7356 -111.0897 346° North 363 418 17,400 -1,268 Descending Albuquerque Center
Sun 08:45:46 PM 32.8286 -111.1167 346° North 350 403 16,100 -1,230 Descending Albuquerque Center
Sun 08:46:47 PM 32.9008 -111.1825 323° Northwest 346 398 14,900 -1,220 Descending Albuquerque Center
Sun 08:47:49 PM 32.9453 -111.2786 299° West 334 384 13,600 -1,171 Descending Albuquerque Center
Sun 08:48:50 PM 32.9872 -111.3703 299° West 321 369 12,500 -1,082 Descending Albuquerque Center
Sun 08:49:51 PM 33.0300 -111.4569 301° West 308 354 11,400 -878 Descending Albuquerque Center
Sun 08:50:53 PM 33.0742 -111.5433 301° West 306 352 10,700 -1,122 Descending Albuquerque Center
Sun 08:51:54 PM 33.1433 -111.5914 330° Northwest 255 293 9,100 -1,328 Descending Albuquerque Center
Sun 08:52:55 PM 33.2100 -111.5903 North 244 281 8,000 -537 Descending Albuquerque Center
Sun 08:53:57 PM 33.2758 -111.5900 360° North 238 274 8,000 -195 Level Albuquerque Center
Sun 08:54:58 PM 33.3411 -111.5894 360° North 236 272 7,600 -787 Descending Albuquerque Center
Sun 08:55:59 PM 33.3969 -111.6108 342° North 242 278 6,400 -885 Descending Albuquerque Center
Sun 08:57:00 PM 33.4322 -111.6742 304° West 233 268 5,800 -590 Descending Albuquerque Center

Login

Don't have an account? Register now (free) for customized features, flight alerts, and more!